Slingerlands, NY (12159)

12:40 PM EDT on September 30, 2014 (GMT -0400)
Voorheesville Elementary School | Change Station
CLOSE
Current Station
Personal Weather Station
Location: Voorheesville, NY
Elevation: 341 ft
Nearby Weather Stations

Elev 341 ft 42.65 °N, 73.94 °W | Updated 3 seconds ago

Mostly Cloudy
Mostly Cloudy
71.2 °F
Feels Like 75 °F
N
2.0
Wind Variable Wind from South
Gusts 10.0 mph

Today
High -- | Low -- °F
--% Chance of Precip.
Yesterday
High -- | Low -- °F
Precip. -- in
6:51 AM 6:38 PM
Waxing Crescent, 38% visible
Pressure 29.96 in
Visibility 10.0 miles
Clouds Scattered Clouds 2700 ft
Mostly Cloudy 26000 ft
Heat Index 75 °F
Dew Point 60 °F
Humidity 68%
Rainfall 0.00 in
Snow Depth Not available.
UV 3 out of 12
Pollen 2.00 out of 12
PM2.5 Good
Flu Activity Not available.
SPECI KALB 301627Z 19005KT 10SM SCT027 BKN260 21/14 A2996 RMK AO2 SCT V BKN T02110139

More Conditions Fewer Conditions

Pressure 29.96 in
Visibility 10.0 miles
Clouds Scattered Clouds 2700 ft
Mostly Cloudy 26000 ft
Heat Index 75 °F
Dew Point 60 °F
Humidity 68%
Rainfall 0.00 in
Snow Depth Not available.
UV 3 out of 12
Pollen 2.00 out of 12
PM2.5 Good
Flu Activity Not available.
SPECI KALB 301627Z 19005KT 10SM SCT027 BKN260 21/14 A2996 RMK AO2 SCT V BKN T02110139

More Conditions Fewer Conditions

10-Day Weather Forecast

Almanac

Astronomy

Sep. 30, 2014 Rise Set
Actual Time 6:51 AM EDT 6:38 PM EDT
Civil Twilight 6:23 AM EDT 7:06 PM EDT
Nautical Twilight 5:50 AM EDT 7:39 PM EDT
Astronomical Twilight 5:17 AM EDT 8:12 PM EDT
Moon 1:03 PM EDT 11:00 PM EDT
Length of Visible Light 12h 43m
Length of Day
11h 47m
Tomorrow will be 2m 52s shorter.
Waxing Crescent, 38% of the Moon is Illuminated
Today
Waxing Crescent
Oct 1
First Quarter
Oct 8
Full
Oct 15
Last Quarter
Oct 23
New

Today's Extremes

State Highs State Lows

Community

WunderPhotos

Upload Photos

1,757,679 photos uploaded!

Nearby

Air Quality

  Air Quality AQ Index Pollutant
Yesterday Moderate
PM2.5
Yesterday Good
OZONE
Current Good
PM2.5
Tuesday Moderate
PM2.5
Tuesday Good
OZONE

Snow Depth

Station Depth Elevation
No new snow has been reported.

Earthquake Activity

City Distance Mag. Time & Date
No recent earthquake activity has been reported nearby.
Minimum magnitude displayed is 2.5.

Coastal Water Temperatures

Place Temperature
No Stations Reporting

Nearby Weather Stations